createdAt,value
2018-02-20T00:00:02.400Z,22.8
2018-02-20T00:01:02.138Z,22.9
2018-02-20T00:02:01.970Z,22.9
2018-02-20T00:03:02.121Z,22.9
2018-02-20T00:04:01.853Z,22.9
2018-02-20T00:05:01.771Z,22.9
2018-02-20T00:06:01.783Z,22.9
2018-02-20T00:07:01.772Z,22.9
2018-02-20T00:08:01.621Z,22.9
2018-02-20T00:09:02.001Z,22.9
2018-02-20T00:10:01.841Z,22.9
2018-02-20T00:11:01.394Z,22.9
2018-02-20T00:12:01.450Z,22.9
2018-02-20T00:13:01.138Z,22.8
2018-02-20T00:14:01.140Z,22.8
2018-02-20T00:15:01.045Z,22.8
2018-02-20T00:16:01.112Z,22.8
2018-02-20T00:17:01.068Z,22.9
2018-02-20T00:18:00.864Z,22.8
2018-02-20T00:19:00.913Z,22.9
2018-02-20T00:20:00.801Z,22.9
2018-02-20T00:21:00.680Z,22.9
2018-02-20T00:22:00.634Z,22.9
2018-02-20T00:23:00.528Z,22.9
2018-02-20T00:24:00.530Z,22.9
2018-02-20T00:25:00.601Z,22.9
2018-02-20T00:26:00.333Z,22.9
2018-02-20T00:27:00.368Z,22.9
2018-02-20T00:28:00.107Z,22.9
2018-02-20T00:29:00.225Z,23
2018-02-20T00:30:00.256Z,22.9
2018-02-20T00:31:00.130Z,22.9
2018-02-20T00:31:59.904Z,22.9
2018-02-20T00:33:00.063Z,22.9
2018-02-20T00:33:59.695Z,22.9
2018-02-20T00:34:59.908Z,22.9
2018-02-20T00:35:59.733Z,22.9
2018-02-20T00:36:59.847Z,22.9
2018-02-20T00:37:59.527Z,22.9
2018-02-20T00:38:59.445Z,22.9
2018-02-20T00:39:59.443Z,22.9
2018-02-20T00:40:59.573Z,22.8
2018-02-20T00:41:59.605Z,22.8
2018-02-20T00:42:59.255Z,22.8
2018-02-20T00:43:59.291Z,22.8
2018-02-20T00:44:59.224Z,22.9
2018-02-20T00:45:59.148Z,22.9
2018-02-20T00:46:58.845Z,22.9
2018-02-20T00:47:59.486Z,22.9
2018-02-20T00:48:58.769Z,22.9
2018-02-20T00:49:58.766Z,22.8
2018-02-20T00:50:58.610Z,22.8
2018-02-20T00:51:59.006Z,22.8
2018-02-20T00:52:58.672Z,22.8
2018-02-20T00:53:58.661Z,22.8
2018-02-20T00:54:58.336Z,22.8
2018-02-20T00:55:58.227Z,22.8
2018-02-20T00:56:58.126Z,22.8
2018-02-20T00:57:58.514Z,22.8
2018-02-20T00:58:58.155Z,22.8
2018-02-20T00:59:58.184Z,22.8
2018-02-20T01:00:57.921Z,22.8
2018-02-20T01:01:57.831Z,22.8
2018-02-20T01:02:57.849Z,22.8
2018-02-20T01:03:57.875Z,22.9
2018-02-20T01:04:57.939Z,22.9
2018-02-20T01:05:57.777Z,22.9
2018-02-20T01:06:57.883Z,22.9
2018-02-20T01:07:58.228Z,22.9
2018-02-20T01:08:57.368Z,22.9
2018-02-20T01:09:57.697Z,22.9
2018-02-20T01:10:57.277Z,22.9
2018-02-20T01:11:57.120Z,22.8
2018-02-20T01:12:57.193Z,22.9
2018-02-20T01:13:56.939Z,22.8
2018-02-20T01:14:56.941Z,22.8
2018-02-20T01:15:57.182Z,22.8
2018-02-20T01:16:56.824Z,22.8
2018-02-20T01:17:57.212Z,22.8
2018-02-20T01:18:56.954Z,22.8
2018-02-20T01:19:56.994Z,22.8
2018-02-20T01:20:56.849Z,22.8
2018-02-20T01:21:56.384Z,22.8
2018-02-20T01:22:56.388Z,22.8
2018-02-20T01:23:56.450Z,22.8
2018-02-20T01:24:56.363Z,22.8
2018-02-20T01:25:56.593Z,22.8
2018-02-20T01:26:56.432Z,22.8
2018-02-20T01:27:56.107Z,22.8
2018-02-20T01:28:56.080Z,22.8
2018-02-20T01:29:55.831Z,22.8
2018-02-20T01:30:56.233Z,22.8
2018-02-20T01:31:55.784Z,22.7
2018-02-20T01:32:55.718Z,22.8
2018-02-20T01:33:55.739Z,22.8
2018-02-20T01:34:55.526Z,22.7
2018-02-20T01:35:55.510Z,22.7
2018-02-20T01:36:55.409Z,22.8
2018-02-20T01:37:55.646Z,22.7
2018-02-20T01:38:55.463Z,22.8
2018-02-20T01:39:55.211Z,22.7
2018-02-20T01:40:55.172Z,22.8
2018-02-20T01:41:55.208Z,22.8
2018-02-20T01:42:54.976Z,22.8
2018-02-20T01:43:55.018Z,22.8
2018-02-20T01:44:55.647Z,22.8
2018-02-20T01:45:54.730Z,22.8
2018-02-20T01:46:54.730Z,22.8
2018-02-20T01:47:55.501Z,22.8
2018-02-20T01:48:54.613Z,22.8
2018-02-20T01:49:54.521Z,22.8
2018-02-20T01:50:54.538Z,22.9
2018-02-20T01:51:54.410Z,22.9
2018-02-20T01:52:54.434Z,22.9
2018-02-20T01:53:54.182Z,22.9
2018-02-20T01:54:54.296Z,22.9
2018-02-20T01:55:54.804Z,22.9
2018-02-20T01:56:54.068Z,22.9
2018-02-20T01:57:54.212Z,22.9
2018-02-20T01:58:53.921Z,22.9
2018-02-20T01:59:53.876Z,22.9
2018-02-20T02:00:54.066Z,22.8
2018-02-20T02:01:54.094Z,22.8
2018-02-20T02:02:53.560Z,22.8
2018-02-20T02:03:53.721Z,22.8
2018-02-20T02:04:53.661Z,22.8
2018-02-20T02:05:53.504Z,22.8
2018-02-20T02:06:53.516Z,22.8
2018-02-20T02:07:53.521Z,22.9
2018-02-20T02:08:53.798Z,22.9
2018-02-20T02:09:53.192Z,22.9
2018-02-20T02:10:53.176Z,22.9
2018-02-20T02:11:53.027Z,22.8
2018-02-20T02:12:52.933Z,22.8
2018-02-20T02:13:53.211Z,22.8
2018-02-20T02:14:52.930Z,22.8
2018-02-20T02:15:53.014Z,22.8
2018-02-20T02:16:52.784Z,22.8
2018-02-20T02:17:52.989Z,22.8
2018-02-20T02:18:52.460Z,22.8
2018-02-20T02:19:52.471Z,22.8
2018-02-20T02:20:52.848Z,22.8
2018-02-20T02:21:52.431Z,22.8
2018-02-20T02:22:52.355Z,22.8
2018-02-20T02:23:52.254Z,22.8
2018-02-20T02:24:52.150Z,22.8
2018-02-20T02:25:52.045Z,22.8
2018-02-20T02:26:52.084Z,22.8
2018-02-20T02:27:52.108Z,22.8
2018-02-20T02:28:51.949Z,22.8
2018-02-20T02:29:51.873Z,22.8
2018-02-20T02:30:51.917Z,22.8
2018-02-20T02:31:51.686Z,22.8
2018-02-20T02:32:51.539Z,22.8
2018-02-20T02:33:51.783Z,22.8
2018-02-20T02:34:51.644Z,22.8
2018-02-20T02:35:51.572Z,22.8
2018-02-20T02:36:51.298Z,22.8
2018-02-20T02:37:51.168Z,22.8
2018-02-20T02:38:51.443Z,22.8
2018-02-20T02:39:51.203Z,22.8
2018-02-20T02:40:51.321Z,22.8
2018-02-20T02:41:51.260Z,22.8
2018-02-20T02:42:51.091Z,22.8
2018-02-20T02:43:50.827Z,22.8
2018-02-20T02:44:50.855Z,22.8
2018-02-20T02:45:51.141Z,22.8
2018-02-20T02:46:50.680Z,22.8
2018-02-20T02:47:50.795Z,22.8
2018-02-20T02:48:50.458Z,22.8
2018-02-20T02:49:50.669Z,22.8
2018-02-20T02:50:50.319Z,22.8
2018-02-20T02:51:50.563Z,22.8
2018-02-20T02:52:50.404Z,22.8
2018-02-20T02:53:50.187Z,22.8
2018-02-20T02:54:50.018Z,22.8
2018-02-20T02:55:50.160Z,22.8
2018-02-20T02:56:50.193Z,22.9
2018-02-20T02:57:49.825Z,22.9
2018-02-20T02:58:49.873Z,22.9
2018-02-20T02:59:50.122Z,22.9
2018-02-20T03:00:49.895Z,22.9
2018-02-20T03:01:49.764Z,22.9
2018-02-20T03:02:49.606Z,22.9
2018-02-20T03:03:49.427Z,22.9
2018-02-20T03:04:49.572Z,23
2018-02-20T03:05:49.558Z,22.9
2018-02-20T03:06:49.312Z,22.9
2018-02-20T03:07:49.552Z,23
2018-02-20T03:08:49.291Z,22.9
2018-02-20T03:09:49.005Z,22.9
2018-02-20T03:10:49.014Z,22.9
2018-02-20T03:11:48.845Z,22.9
2018-02-20T03:12:48.745Z,22.9
2018-02-20T03:13:48.895Z,22.9
2018-02-20T03:14:48.787Z,22.9
2018-02-20T03:15:49.024Z,22.9
2018-02-20T03:16:48.552Z,22.8
2018-02-20T03:17:48.447Z,22.8
2018-02-20T03:18:48.935Z,22.8
2018-02-20T03:19:48.419Z,22.8
2018-02-20T03:20:48.374Z,22.8
2018-02-20T03:21:48.109Z,22.8
2018-02-20T03:22:48.042Z,22.8
2018-02-20T03:23:48.154Z,22.8
2018-02-20T03:24:48.193Z,22.8
2018-02-20T03:25:48.407Z,22.8
2018-02-20T03:26:48.421Z,22.8
2018-02-20T03:27:47.719Z,22.8
2018-02-20T03:28:47.917Z,22.8
2018-02-20T03:29:48.081Z,22.8
2018-02-20T03:30:47.556Z,22.8
2018-02-20T03:31:47.423Z,22.8
2018-02-20T03:32:47.723Z,22.8
2018-02-20T03:33:47.304Z,22.8
2018-02-20T03:34:47.495Z,22.8
2018-02-20T03:35:47.331Z,22.8
2018-02-20T03:36:47.544Z,22.8
2018-02-20T03:37:47.295Z,22.8
2018-02-20T03:38:47.022Z,22.8
2018-02-20T03:39:47.065Z,22.8
2018-02-20T03:40:46.979Z,22.8
2018-02-20T03:41:46.906Z,22.8
2018-02-20T03:42:47.041Z,22.8
2018-02-20T03:43:46.943Z,22.7
2018-02-20T03:44:46.591Z,22.7
2018-02-20T03:45:46.696Z,22.7
2018-02-20T03:46:46.576Z,22.7
2018-02-20T03:47:46.691Z,22.7
2018-02-20T03:48:46.337Z,22.7
2018-02-20T03:49:46.470Z,22.7
2018-02-20T03:50:46.872Z,22.7
2018-02-20T03:51:46.104Z,22.7
2018-02-20T03:52:46.179Z,22.7
2018-02-20T03:53:46.394Z,22.6
2018-02-20T03:54:45.928Z,22.6
2018-02-20T03:55:46.056Z,22.7
2018-02-20T03:56:46.057Z,22.7
2018-02-20T03:57:45.888Z,22.6
2018-02-20T03:58:45.598Z,22.6
2018-02-20T03:59:45.683Z,22.6
2018-02-20T04:00:45.882Z,22.7
2018-02-20T04:01:45.523Z,22.6
2018-02-20T04:02:45.359Z,22.6
2018-02-20T04:03:45.441Z,22.6
2018-02-20T04:04:45.335Z,22.6
2018-02-20T04:05:45.386Z,22.6
2018-02-20T04:06:45.665Z,22.6
2018-02-20T04:07:45.470Z,22.6
2018-02-20T04:08:45.005Z,22.6
2018-02-20T04:09:44.865Z,22.6
2018-02-20T04:10:45.021Z,22.6
2018-02-20T04:11:44.900Z,22.6
2018-02-20T04:12:45.599Z,22.6
2018-02-20T04:13:44.670Z,22.6
2018-02-20T04:14:44.592Z,22.6
2018-02-20T04:15:44.827Z,22.6
2018-02-20T04:16:44.808Z,22.6
2018-02-20T04:17:44.533Z,22.6
2018-02-20T04:18:44.591Z,22.6
2018-02-20T04:19:44.168Z,22.6
2018-02-20T04:20:44.328Z,22.6
2018-02-20T04:21:44.033Z,22.6
2018-02-20T04:22:44.034Z,22.6
2018-02-20T04:23:43.869Z,22.6
2018-02-20T04:24:43.815Z,22.6
2018-02-20T04:25:43.763Z,22.6
2018-02-20T04:26:43.810Z,22.6
2018-02-20T04:27:43.555Z,22.6
2018-02-20T04:28:43.550Z,22.6
2018-02-20T04:29:43.492Z,22.6
2018-02-20T04:30:43.523Z,22.6
2018-02-20T04:31:43.469Z,22.6
2018-02-20T04:32:43.328Z,22.6
2018-02-20T04:33:43.322Z,22.5
2018-02-20T04:34:43.244Z,22.6
2018-02-20T04:35:43.052Z,22.6
2018-02-20T04:36:43.126Z,22.6
2018-02-20T04:37:43.173Z,22.6
2018-02-20T04:38:43.100Z,22.6
2018-02-20T04:39:43.508Z,22.6
2018-02-20T04:40:42.678Z,22.6
2018-02-20T04:41:42.897Z,22.6
2018-02-20T04:42:42.895Z,22.6
2018-02-20T04:43:42.780Z,22.6
2018-02-20T04:44:43.150Z,22.5
2018-02-20T04:45:42.579Z,22.5
2018-02-20T04:46:42.767Z,22.5
2018-02-20T04:47:42.487Z,22.5
2018-02-20T04:48:42.329Z,22.5
2018-02-20T04:49:42.114Z,22.5
2018-02-20T04:50:42.730Z,22.5
2018-02-20T04:51:42.367Z,22.5
2018-02-20T04:52:41.904Z,22.5
2018-02-20T04:53:41.818Z,22.5
2018-02-20T04:54:42.011Z,22.5
2018-02-20T04:55:41.692Z,22.5
2018-02-20T04:56:41.747Z,22.5
2018-02-20T04:57:41.579Z,22.5
2018-02-20T04:58:41.608Z,22.5
2018-02-20T04:59:41.622Z,22.5
2018-02-20T05:00:41.457Z,22.5
2018-02-20T05:01:41.632Z,22.5
2018-02-20T05:02:41.319Z,22.5
2018-02-20T05:03:42.065Z,22.5
2018-02-20T05:04:41.308Z,22.6
2018-02-20T05:05:41.292Z,22.5
2018-02-20T05:06:40.961Z,22.5
2018-02-20T05:07:40.967Z,22.5
2018-02-20T05:08:40.919Z,22.5
2018-02-20T05:09:40.938Z,22.5
2018-02-20T05:10:40.626Z,22.5
2018-02-20T05:11:40.977Z,22.5
2018-02-20T05:12:40.630Z,22.5
2018-02-20T05:13:40.583Z,22.5
2018-02-20T05:14:40.507Z,22.5
2018-02-20T05:15:40.339Z,22.5
2018-02-20T05:16:40.181Z,22.5
2018-02-20T05:17:40.299Z,22.5
2018-02-20T05:18:40.220Z,22.5
2018-02-20T05:19:40.147Z,22.4
2018-02-20T05:20:39.968Z,22.4
2018-02-20T05:21:40.108Z,22.4
2018-02-20T05:22:40.063Z,22.4
2018-02-20T05:23:39.928Z,22.4
2018-02-20T05:24:39.807Z,22.4
2018-02-20T05:25:39.763Z,22.4
2018-02-20T05:26:39.732Z,22.4
2018-02-20T05:27:39.567Z,22.4
2018-02-20T05:28:39.534Z,22.4
2018-02-20T05:29:39.614Z,22.4
2018-02-20T05:30:39.517Z,22.4
2018-02-20T05:31:39.420Z,22.4
2018-02-20T05:32:39.140Z,22.4
2018-02-20T05:33:39.373Z,22.4
2018-02-20T05:34:39.111Z,22.4
2018-02-20T05:35:39.114Z,22.4
2018-02-20T05:36:39.488Z,22.4
2018-02-20T05:37:39.120Z,22.4
2018-02-20T05:38:38.853Z,22.4
2018-02-20T05:39:39.086Z,22.4
2018-02-20T05:40:38.955Z,22.4
2018-02-20T05:41:38.525Z,22.4
2018-02-20T05:42:38.511Z,22.4
2018-02-20T05:43:38.389Z,22.4
2018-02-20T05:44:38.602Z,22.4
2018-02-20T05:45:38.349Z,22.4
2018-02-20T05:46:38.346Z,22.4
2018-02-20T05:47:38.133Z,22.4
2018-02-20T05:48:37.975Z,22.4
2018-02-20T05:49:37.997Z,22.4
2018-02-20T05:50:38.353Z,22.4
2018-02-20T05:51:37.802Z,22.4
2018-02-20T05:52:37.993Z,22.4
2018-02-20T05:53:38.222Z,22.4
2018-02-20T05:54:37.837Z,22.4
2018-02-20T05:55:37.718Z,22.4
2018-02-20T05:56:37.642Z,22.3
2018-02-20T05:57:37.660Z,22.4
2018-02-20T05:58:37.332Z,22.4
2018-02-20T05:59:37.643Z,22.4
2018-02-20T06:00:37.490Z,22.4
2018-02-20T06:01:37.431Z,22.4
2018-02-20T06:02:37.295Z,22.4
2018-02-20T06:03:37.402Z,22.3
2018-02-20T06:04:37.052Z,22.4
2018-02-20T06:05:36.997Z,22.4
2018-02-20T06:06:37.205Z,22.4
2018-02-20T06:07:36.805Z,22.4
2018-02-20T06:08:37.055Z,22.4
2018-02-20T06:09:37.235Z,22.4
2018-02-20T06:10:36.650Z,22.3
2018-02-20T06:11:36.460Z,22.3
2018-02-20T06:12:36.608Z,22.3
2018-02-20T06:13:36.429Z,22.4
2018-02-20T06:14:36.362Z,22.3
2018-02-20T06:15:36.360Z,22.3
2018-02-20T06:16:36.211Z,22.3
2018-02-20T06:17:36.070Z,22.4
2018-02-20T06:18:36.087Z,22.3
2018-02-20T06:19:35.922Z,22.3
2018-02-20T06:20:35.890Z,22.3
2018-02-20T06:21:35.816Z,22.3
2018-02-20T06:22:36.391Z,22.3
2018-02-20T06:23:35.920Z,22.3
2018-02-20T06:24:35.664Z,22.3
2018-02-20T06:25:35.610Z,22.3
2018-02-20T06:26:35.692Z,22.3
2018-02-20T06:27:35.749Z,22.3
2018-02-20T06:28:35.510Z,22.3
2018-02-20T06:29:35.326Z,22.3
2018-02-20T06:30:35.259Z,22.3
2018-02-20T06:31:35.198Z,22.3
2018-02-20T06:32:35.383Z,22.3
2018-02-20T06:33:35.061Z,22.3
2018-02-20T06:34:34.895Z,22.3
2018-02-20T06:35:34.746Z,22.3
2018-02-20T06:36:35.274Z,22.3
2018-02-20T06:37:34.880Z,22.3
2018-02-20T06:38:34.888Z,22.3
2018-02-20T06:39:34.753Z,22.3
2018-02-20T06:40:34.522Z,22.3
2018-02-20T06:41:34.470Z,22.3
2018-02-20T06:42:34.553Z,22.3
2018-02-20T06:43:34.250Z,22.3
2018-02-20T06:44:34.190Z,22.3
2018-02-20T06:45:34.112Z,22.3
2018-02-20T06:46:34.109Z,22.3
2018-02-20T06:47:34.057Z,22.3
2018-02-20T06:48:33.905Z,22.3
2018-02-20T06:49:34.125Z,22.3
2018-02-20T06:50:33.698Z,22.3
2018-02-20T06:51:33.815Z,22.3
2018-02-20T06:52:33.651Z,22.3
2018-02-20T06:53:33.562Z,22.3
2018-02-20T06:54:33.593Z,22.3
2018-02-20T06:55:34.137Z,22.3
2018-02-20T06:56:33.493Z,22.3
2018-02-20T06:57:33.446Z,22.3
2018-02-20T06:58:33.921Z,22.3
2018-02-20T06:59:33.173Z,22.3
2018-02-20T07:00:33.296Z,22.4
2018-02-20T07:01:33.420Z,22.4
2018-02-20T07:02:33.053Z,22.4
2018-02-20T07:03:33.240Z,22.4
2018-02-20T07:04:32.796Z,22.4
2018-02-20T07:05:32.828Z,22.4
2018-02-20T07:06:32.777Z,22.4
2018-02-20T07:07:32.954Z,22.5
2018-02-20T07:08:33.173Z,22.5
2018-02-20T07:09:33.171Z,22.5
2018-02-20T07:10:32.740Z,22.4
2018-02-20T07:11:32.675Z,22.4
2018-02-20T07:12:32.292Z,22.4
2018-02-20T07:13:32.765Z,22.4
2018-02-20T07:14:32.226Z,22.4
2018-02-20T07:15:32.468Z,22.4
2018-02-20T07:16:31.993Z,22.4
2018-02-20T07:17:32.231Z,22.4
2018-02-20T07:18:31.992Z,22.4
2018-02-20T07:19:31.727Z,22.5
2018-02-20T07:20:31.689Z,22.4
2018-02-20T07:21:31.837Z,22.5
2018-02-20T07:22:31.948Z,22.5
2018-02-20T07:23:31.594Z,22.4
2018-02-20T07:24:31.346Z,22.4
2018-02-20T07:25:31.351Z,22.4
2018-02-20T07:26:31.504Z,22.5
2018-02-20T07:27:31.499Z,22.4
2018-02-20T07:28:31.261Z,22.5
2018-02-20T07:29:31.006Z,22.5
2018-02-20T07:30:31.235Z,22.5
2018-02-20T07:31:31.354Z,22.5
2018-02-20T07:32:30.979Z,22.5
2018-02-20T07:33:31.121Z,22.5
2018-02-20T07:34:30.710Z,22.5
2018-02-20T07:35:30.791Z,22.5
2018-02-20T07:36:30.706Z,22.5
2018-02-20T07:37:30.513Z,22.5
2018-02-20T07:38:30.809Z,22.5
2018-02-20T07:39:30.400Z,22.5
2018-02-20T07:40:30.434Z,22.5
2018-02-20T07:41:30.470Z,22.5
2018-02-20T07:42:30.155Z,22.5
2018-02-20T07:43:30.124Z,22.5
2018-02-20T07:44:30.345Z,22.5
2018-02-20T07:45:30.276Z,22.5
2018-02-20T07:46:29.965Z,22.5
2018-02-20T07:47:30.039Z,22.5
2018-02-20T07:48:30.036Z,22.5
2018-02-20T07:49:30.089Z,22.5
2018-02-20T07:50:29.626Z,22.6
2018-02-20T07:51:29.558Z,22.6
2018-02-20T07:52:29.705Z,22.6
2018-02-20T07:53:30.055Z,22.6
2018-02-20T07:54:29.626Z,22.6
2018-02-20T07:55:29.864Z,22.6
2018-02-20T07:56:29.307Z,22.6
2018-02-20T07:57:29.361Z,22.6
2018-02-20T07:58:29.151Z,22.6
2018-02-20T07:59:29.354Z,22.6
2018-02-20T08:00:29.058Z,22.6
2018-02-20T08:01:28.990Z,22.6
2018-02-20T08:02:29.354Z,22.6
2018-02-20T08:03:28.901Z,22.6
2018-02-20T08:04:28.676Z,22.6
2018-02-20T08:05:28.923Z,22.6
2018-02-20T08:06:28.626Z,22.6
2018-02-20T08:07:28.844Z,22.7
2018-02-20T08:08:28.597Z,22.7
2018-02-20T08:09:28.712Z,22.7
2018-02-20T08:10:28.271Z,22.7
2018-02-20T08:11:28.499Z,22.6
2018-02-20T08:12:28.100Z,22.6
2018-02-20T08:13:28.390Z,22.6
2018-02-20T08:14:28.103Z,22.6
2018-02-20T08:15:28.202Z,22.6
2018-02-20T08:16:28.029Z,22.6
2018-02-20T08:17:28.155Z,22.6
2018-02-20T08:18:27.833Z,22.6
2018-02-20T08:19:27.837Z,22.6
2018-02-20T08:20:27.670Z,22.6
2018-02-20T08:21:27.575Z,22.6
2018-02-20T08:22:28.007Z,22.6
2018-02-20T08:23:27.642Z,22.6
2018-02-20T08:24:27.565Z,22.6
2018-02-20T08:25:27.313Z,22.6
2018-02-20T08:26:27.525Z,22.6
2018-02-20T08:27:27.182Z,22.6
2018-02-20T08:28:27.106Z,22.6
2018-02-20T08:29:27.016Z,22.6
2018-02-20T08:30:26.852Z,22.6
2018-02-20T08:31:26.794Z,22.6
2018-02-20T08:32:26.715Z,22.6
2018-02-20T08:33:27.074Z,22.6
2018-02-20T08:34:26.600Z,22.6
2018-02-20T08:35:26.725Z,22.6
2018-02-20T08:36:26.558Z,22.6
2018-02-20T08:37:26.792Z,22.6
2018-02-20T08:38:26.406Z,22.6
2018-02-20T08:39:26.514Z,22.6
2018-02-20T08:40:26.114Z,22.6
2018-02-20T08:41:26.114Z,22.6
2018-02-20T08:42:26.139Z,22.6
2018-02-20T08:43:26.252Z,22.6
2018-02-20T08:44:25.912Z,22.6
2018-02-20T08:45:26.116Z,22.6
2018-02-20T08:46:25.803Z,22.6
2018-02-20T08:47:26.017Z,22.6
2018-02-20T08:48:25.718Z,22.6
2018-02-20T08:49:25.943Z,22.6
2018-02-20T08:50:25.592Z,22.6
2018-02-20T08:51:25.384Z,22.6
2018-02-20T08:52:25.352Z,22.7
2018-02-20T08:53:25.398Z,22.7
2018-02-20T08:54:25.436Z,22.7
2018-02-20T08:55:25.396Z,22.7
2018-02-20T08:56:25.432Z,22.7
2018-02-20T08:57:25.449Z,22.7
2018-02-20T08:58:25.136Z,22.7
2018-02-20T08:59:24.961Z,22.6
2018-02-20T09:00:24.942Z,22.6
2018-02-20T09:01:24.854Z,22.6
2018-02-20T09:02:24.707Z,22.6
2018-02-20T09:03:24.698Z,22.6
2018-02-20T09:04:24.636Z,22.6
2018-02-20T09:05:24.476Z,22.6
2018-02-20T09:06:24.487Z,22.7
2018-02-20T09:07:24.405Z,22.6
2018-02-20T09:08:24.238Z,22.6
2018-02-20T09:09:24.259Z,22.7
2018-02-20T09:10:24.339Z,22.7
2018-02-20T09:11:24.349Z,22.7
2018-02-20T09:12:24.073Z,22.8
2018-02-20T09:13:24.006Z,22.8
2018-02-20T09:14:24.432Z,22.8
2018-02-20T09:15:23.762Z,22.8
2018-02-20T09:16:23.776Z,22.8
2018-02-20T09:17:23.694Z,22.7
2018-02-20T09:18:23.504Z,22.7
2018-02-20T09:19:24.051Z,22.8
2018-02-20T09:20:23.503Z,22.7
2018-02-20T09:21:23.601Z,22.7
2018-02-20T09:22:23.308Z,22.8
2018-02-20T09:23:23.208Z,22.8
2018-02-20T09:24:23.257Z,22.8
2018-02-20T09:25:23.265Z,22.8
2018-02-20T09:26:23.468Z,22.8
2018-02-20T09:27:22.893Z,22.8
2018-02-20T09:28:22.787Z,22.8
2018-02-20T09:29:22.897Z,22.8
2018-02-20T09:30:22.817Z,22.8
2018-02-20T09:31:22.957Z,22.8
2018-02-20T09:32:22.568Z,22.8
2018-02-20T09:33:22.732Z,22.8
2018-02-20T09:34:22.555Z,22.8
2018-02-20T09:35:22.340Z,22.8
2018-02-20T09:36:22.245Z,22.7
2018-02-20T09:37:22.621Z,22.7
2018-02-20T09:38:22.156Z,22.8
2018-02-20T09:39:22.101Z,22.7
2018-02-20T09:40:22.665Z,22.8
2018-02-20T09:41:22.050Z,22.8
2018-02-20T09:42:22.230Z,22.8
2018-02-20T09:43:21.924Z,22.8
2018-02-20T09:44:21.755Z,22.8
2018-02-20T09:45:21.747Z,22.8
2018-02-20T09:46:21.724Z,22.8
2018-02-20T09:47:21.620Z,22.8
2018-02-20T09:48:21.561Z,22.8
2018-02-20T09:49:21.398Z,22.8
2018-02-20T09:50:21.541Z,22.8
2018-02-20T09:51:21.713Z,22.8
2018-02-20T09:52:21.647Z,22.8
2018-02-20T09:53:21.111Z,22.8
2018-02-20T09:54:21.097Z,22.8
2018-02-20T09:55:21.384Z,22.8
2018-02-20T09:56:20.886Z,22.7
2018-02-20T09:57:21.160Z,22.7
2018-02-20T09:58:20.824Z,22.7
2018-02-20T09:59:20.750Z,22.7
2018-02-20T10:00:20.742Z,22.7
2018-02-20T10:01:20.770Z,22.7
2018-02-20T10:02:20.710Z,22.7
2018-02-20T10:03:20.536Z,22.6
2018-02-20T10:04:20.662Z,22.6
2018-02-20T10:05:20.448Z,22.7
2018-02-20T10:06:20.501Z,22.7
2018-02-20T10:07:20.307Z,22.6
2018-02-20T10:08:20.178Z,22.7
2018-02-20T10:09:20.416Z,22.6
2018-02-20T10:10:20.039Z,22.6
2018-02-20T10:11:19.870Z,22.7
2018-02-20T10:12:19.792Z,22.7
2018-02-20T10:13:19.970Z,22.7
2018-02-20T10:14:19.633Z,22.7
2018-02-20T10:15:19.878Z,22.7
2018-02-20T10:16:19.916Z,22.7
2018-02-20T10:17:19.553Z,22.7
2018-02-20T10:18:19.508Z,22.7
2018-02-20T10:19:19.311Z,22.7
2018-02-20T10:20:19.361Z,22.6
2018-02-20T10:21:19.495Z,22.6
2018-02-20T10:22:19.232Z,22.6
2018-02-20T10:23:19.019Z,22.6
2018-02-20T10:24:19.072Z,22.6
2018-02-20T10:25:18.884Z,22.6
2018-02-20T10:26:18.958Z,22.7
2018-02-20T10:27:18.771Z,22.6
2018-02-20T10:28:18.813Z,22.6
2018-02-20T10:29:18.734Z,22.6
2018-02-20T10:30:18.572Z,22.7
2018-02-20T10:31:18.825Z,22.6
2018-02-20T10:32:18.511Z,22.6
2018-02-20T10:33:18.515Z,22.6
2018-02-20T10:34:18.566Z,22.6
2018-02-20T10:35:18.322Z,22.6
2018-02-20T10:36:18.781Z,22.6
2018-02-20T10:37:18.395Z,22.6
2018-02-20T10:38:18.450Z,22.6
2018-02-20T10:39:17.930Z,22.6
2018-02-20T10:40:18.087Z,22.6
2018-02-20T10:41:18.409Z,22.6
2018-02-20T10:42:17.759Z,22.6
2018-02-20T10:43:17.889Z,22.7
2018-02-20T10:44:17.519Z,22.6
2018-02-20T10:45:17.617Z,22.6
2018-02-20T10:46:17.704Z,22.6
2018-02-20T10:47:17.784Z,22.6
2018-02-20T10:48:17.905Z,22.6
2018-02-20T10:49:17.558Z,22.6
2018-02-20T10:50:17.281Z,22.6
2018-02-20T10:51:17.219Z,22.6
2018-02-20T10:52:17.042Z,22.6
2018-02-20T10:53:17.384Z,22.6
2018-02-20T10:54:17.007Z,22.6
2018-02-20T10:55:17.003Z,22.6
2018-02-20T10:56:17.075Z,22.6
2018-02-20T10:57:16.804Z,22.6
2018-02-20T10:58:16.830Z,22.6
2018-02-20T10:59:16.820Z,22.6
2018-02-20T11:00:16.487Z,22.6
2018-02-20T11:01:16.542Z,22.6
2018-02-20T11:02:16.349Z,22.6
2018-02-20T11:03:16.742Z,22.6
2018-02-20T11:04:16.436Z,22.6
2018-02-20T11:05:16.258Z,22.6
2018-02-20T11:06:16.186Z,22.6
2018-02-20T11:07:16.384Z,22.6
2018-02-20T11:08:15.929Z,22.6
2018-02-20T11:09:16.344Z,22.6
2018-02-20T11:10:15.860Z,22.6
2018-02-20T11:11:15.845Z,22.6
2018-02-20T11:12:15.766Z,22.6
2018-02-20T11:13:15.722Z,22.6
2018-02-20T11:14:15.530Z,22.7
2018-02-20T11:15:15.460Z,22.6
2018-02-20T11:16:15.679Z,22.7
2018-02-20T11:17:15.411Z,22.6
2018-02-20T11:18:15.253Z,22.7
2018-02-20T11:19:15.297Z,22.6
2018-02-20T11:20:15.294Z,22.6
2018-02-20T11:21:15.031Z,22.6
2018-02-20T11:22:15.170Z,22.6
2018-02-20T11:23:14.890Z,22.6
2018-02-20T11:24:15.042Z,22.6
2018-02-20T11:25:14.737Z,22.6
2018-02-20T11:26:14.738Z,22.7
2018-02-20T11:27:14.885Z,22.7
2018-02-20T11:28:14.550Z,22.7
2018-02-20T11:29:14.635Z,22.7
2018-02-20T11:30:14.726Z,22.7
2018-02-20T11:31:14.271Z,22.6
2018-02-20T11:32:14.382Z,22.6
2018-02-20T11:33:14.315Z,22.7
2018-02-20T11:34:14.339Z,22.6
2018-02-20T11:35:14.529Z,22.6
2018-02-20T11:36:14.025Z,22.6
2018-02-20T11:37:13.933Z,22.6
2018-02-20T11:38:14.090Z,22.6
2018-02-20T11:39:13.884Z,22.6
2018-02-20T11:40:13.943Z,22.6
2018-02-20T11:41:13.735Z,22.6
2018-02-20T11:42:14.121Z,22.7
2018-02-20T11:43:13.566Z,22.6
2018-02-20T11:44:13.551Z,22.6
2018-02-20T11:45:13.530Z,22.6
2018-02-20T11:46:13.401Z,22.6
2018-02-20T11:47:13.539Z,22.6
2018-02-20T11:48:13.499Z,22.6
2018-02-20T11:49:13.213Z,22.6
2018-02-20T11:50:13.130Z,22.7
2018-02-20T11:51:13.164Z,22.7
2018-02-20T11:52:13.215Z,22.7
2018-02-20T11:53:13.090Z,22.7
2018-02-20T11:54:45.141Z,22.7
2018-02-20T11:55:12.603Z,22.7
2018-02-20T11:56:13.086Z,22.7
2018-02-20T11:57:12.507Z,22.6
2018-02-20T11:58:12.643Z,22.6
2018-02-20T11:59:12.773Z,22.6
2018-02-20T12:00:12.521Z,22.6
2018-02-20T12:01:12.186Z,22.6
2018-02-20T12:02:12.120Z,22.6
2018-02-20T12:03:12.266Z,22.6
2018-02-20T12:04:11.890Z,22.6
2018-02-20T12:05:12.156Z,22.6
2018-02-20T12:06:12.042Z,22.6
2018-02-20T12:07:11.720Z,22.6
2018-02-20T12:08:11.922Z,22.6
2018-02-20T12:09:11.570Z,22.6
2018-02-20T12:10:11.486Z,22.6
2018-02-20T12:11:11.799Z,22.6
2018-02-20T12:12:11.555Z,22.6
2018-02-20T12:13:11.257Z,22.6
2018-02-20T12:14:11.515Z,22.6
2018-02-20T12:15:11.695Z,22.6
2018-02-20T12:16:11.118Z,22.6
2018-02-20T12:17:10.962Z,22.6
2018-02-20T12:18:10.988Z,22.7
2018-02-20T12:19:10.998Z,22.6
2018-02-20T12:20:10.710Z,22.6
2018-02-20T12:21:10.623Z,22.6
2018-02-20T12:22:10.764Z,22.6
2018-02-20T12:23:11.086Z,22.6
2018-02-20T12:24:10.398Z,22.6
2018-02-20T12:25:10.330Z,22.6
2018-02-20T12:26:10.239Z,22.6
2018-02-20T12:27:10.466Z,22.6
2018-02-20T12:28:10.283Z,22.6
2018-02-20T12:29:10.049Z,22.6
2018-02-20T12:30:09.888Z,22.6
2018-02-20T12:31:10.006Z,22.6
2018-02-20T12:32:10.157Z,22.6
2018-02-20T12:33:09.783Z,22.6
2018-02-20T12:34:09.608Z,22.6
2018-02-20T12:35:09.768Z,22.6
2018-02-20T12:36:09.476Z,22.6
2018-02-20T12:37:09.356Z,22.6
2018-02-20T12:38:09.395Z,22.6
2018-02-20T12:39:09.313Z,22.6
2018-02-20T12:40:09.819Z,22.6
2018-02-20T12:41:09.176Z,22.6
2018-02-20T12:42:08.996Z,22.6
2018-02-20T12:43:09.539Z,22.6
2018-02-20T12:44:09.042Z,22.6
2018-02-20T12:45:08.863Z,22.6
2018-02-20T12:46:08.740Z,22.6
2018-02-20T12:47:08.687Z,22.6
2018-02-20T12:48:08.455Z,22.6
2018-02-20T12:49:08.522Z,22.6
2018-02-20T12:50:08.573Z,22.6
2018-02-20T12:51:08.400Z,22.6
2018-02-20T12:52:08.182Z,22.6
2018-02-20T12:53:08.065Z,22.6
2018-02-20T12:54:08.217Z,22.6
2018-02-20T12:55:08.333Z,22.6
2018-02-20T12:56:07.982Z,22.6
2018-02-20T12:57:08.186Z,22.6
2018-02-20T12:58:07.740Z,22.6
2018-02-20T12:59:07.666Z,22.6
2018-02-20T13:00:07.969Z,22.6
2018-02-20T13:01:07.880Z,22.6
2018-02-20T13:02:07.679Z,22.6
2018-02-20T13:03:07.283Z,22.6
2018-02-20T13:04:07.682Z,22.6
2018-02-20T13:05:07.271Z,22.6
2018-02-20T13:06:07.090Z,22.6
2018-02-20T13:07:07.469Z,22.6
2018-02-20T13:08:07.237Z,22.6
2018-02-20T13:09:06.887Z,22.6
2018-02-20T13:10:08.093Z,22.6
2018-02-20T13:11:06.699Z,22.6
2018-02-20T13:12:06.965Z,22.6
2018-02-20T13:13:06.472Z,22.6
2018-02-20T13:14:06.750Z,22.6
2018-02-20T13:15:06.495Z,22.6
2018-02-20T13:16:06.423Z,22.6
2018-02-20T13:17:06.541Z,22.6